sensor_id;sensor_type;location;lat;lon;timestamp;temperature;humidity
19829;DHT22;10075;50.924;4.396;2022-09-30T00:01:26;9.30;99.90
19829;DHT22;10075;50.924;4.396;2022-09-30T00:03:55;9.30;99.90
19829;DHT22;10075;50.924;4.396;2022-09-30T00:06:23;9.30;99.90
19829;DHT22;10075;50.924;4.396;2022-09-30T00:08:51;9.30;99.90
19829;DHT22;10075;50.924;4.396;2022-09-30T00:11:19;9.30;99.90
19829;DHT22;10075;50.924;4.396;2022-09-30T00:13:48;9.20;99.90
19829;DHT22;10075;50.924;4.396;2022-09-30T00:16:18;9.30;99.90
19829;DHT22;10075;50.924;4.396;2022-09-30T00:18:47;9.30;99.90
19829;DHT22;10075;50.924;4.396;2022-09-30T00:21:15;9.30;99.90
19829;DHT22;10075;50.924;4.396;2022-09-30T00:23:43;9.30;99.90
19829;DHT22;10075;50.924;4.396;2022-09-30T00:26:12;9.30;99.90
19829;DHT22;10075;50.924;4.396;2022-09-30T00:28:40;9.20;99.90
19829;DHT22;10075;50.924;4.396;2022-09-30T00:31:10;9.10;99.90
19829;DHT22;10075;50.924;4.396;2022-09-30T00:33:37;9.10;99.90
19829;DHT22;10075;50.924;4.396;2022-09-30T00:36:06;9.10;99.90
19829;DHT22;10075;50.924;4.396;2022-09-30T00:38:33;9.10;99.90
19829;DHT22;10075;50.924;4.396;2022-09-30T00:41:00;9.10;99.90
19829;DHT22;10075;50.924;4.396;2022-09-30T00:43:39;9.00;99.90
19829;DHT22;10075;50.924;4.396;2022-09-30T00:46:15;9.00;99.90
19829;DHT22;10075;50.924;4.396;2022-09-30T00:48:46;8.90;99.90
19829;DHT22;10075;50.924;4.396;2022-09-30T00:51:21;8.90;99.90
19829;DHT22;10075;50.924;4.396;2022-09-30T00:53:56;8.90;99.90
19829;DHT22;10075;50.924;4.396;2022-09-30T00:56:28;8.90;99.90
19829;DHT22;10075;50.924;4.396;2022-09-30T00:59:01;8.90;99.90
19829;DHT22;10075;50.924;4.396;2022-09-30T01:01:30;8.90;99.90
19829;DHT22;10075;50.924;4.396;2022-09-30T01:04:00;8.90;99.90
19829;DHT22;10075;50.924;4.396;2022-09-30T01:06:29;8.90;99.90
19829;DHT22;10075;50.924;4.396;2022-09-30T01:08:56;8.90;99.90
19829;DHT22;10075;50.924;4.396;2022-09-30T01:11:25;9.00;99.90
19829;DHT22;10075;50.924;4.396;2022-09-30T01:13:55;9.00;99.90
19829;DHT22;10075;50.924;4.396;2022-09-30T01:16:37;8.90;99.90
19829;DHT22;10075;50.924;4.396;2022-09-30T01:19:25;8.90;99.90
19829;DHT22;10075;50.924;4.396;2022-09-30T01:22:08;8.80;99.90
19829;DHT22;10075;50.924;4.396;2022-09-30T01:24:49;8.80;99.90
19829;DHT22;10075;50.924;4.396;2022-09-30T01:27:35;8.70;99.90
19829;DHT22;10075;50.924;4.396;2022-09-30T01:30:14;8.70;99.90
19829;DHT22;10075;50.924;4.396;2022-09-30T01:33:18;8.80;99.90
19829;DHT22;10075;50.924;4.396;2022-09-30T01:36:01;8.80;99.90
19829;DHT22;10075;50.924;4.396;2022-09-30T01:38:36;8.90;99.90
19829;DHT22;10075;50.924;4.396;2022-09-30T01:41:12;8.90;99.90
19829;DHT22;10075;50.924;4.396;2022-09-30T01:43:47;8.80;99.90
19829;DHT22;10075;50.924;4.396;2022-09-30T01:46:24;8.80;99.90
19829;DHT22;10075;50.924;4.396;2022-09-30T01:49:03;8.70;99.90
19829;DHT22;10075;50.924;4.396;2022-09-30T01:51:38;8.80;99.90
19829;DHT22;10075;50.924;4.396;2022-09-30T01:54:13;8.70;99.90
19829;DHT22;10075;50.924;4.396;2022-09-30T01:56:47;8.80;99.90
19829;DHT22;10075;50.924;4.396;2022-09-30T01:59:20;8.80;99.90
19829;DHT22;10075;50.924;4.396;2022-09-30T02:01:50;8.80;99.90
19829;DHT22;10075;50.924;4.396;2022-09-30T02:04:24;8.90;99.90
19829;DHT22;10075;50.924;4.396;2022-09-30T02:06:57;8.90;99.90
19829;DHT22;10075;50.924;4.396;2022-09-30T02:09:29;8.80;99.90
19829;DHT22;10075;50.924;4.396;2022-09-30T02:12:01;8.80;99.90
19829;DHT22;10075;50.924;4.396;2022-09-30T02:14:34;8.80;99.90
19829;DHT22;10075;50.924;4.396;2022-09-30T02:17:04;8.80;99.90
19829;DHT22;10075;50.924;4.396;2022-09-30T02:19:36;8.80;99.90
19829;DHT22;10075;50.924;4.396;2022-09-30T02:22:06;8.70;99.90
19829;DHT22;10075;50.924;4.396;2022-09-30T02:24:37;8.70;99.90
19829;DHT22;10075;50.924;4.396;2022-09-30T02:27:09;8.70;99.90
19829;DHT22;10075;50.924;4.396;2022-09-30T02:29:42;8.70;99.90
19829;DHT22;10075;50.924;4.396;2022-09-30T02:32:14;8.60;99.90
19829;DHT22;10075;50.924;4.396;2022-09-30T02:34:47;8.60;99.90
19829;DHT22;10075;50.924;4.396;2022-09-30T02:37:19;8.60;99.90
19829;DHT22;10075;50.924;4.396;2022-09-30T02:39:51;8.60;99.90
19829;DHT22;10075;50.924;4.396;2022-09-30T02:42:22;8.60;99.90
19829;DHT22;10075;50.924;4.396;2022-09-30T02:44:52;8.60;99.90
19829;DHT22;10075;50.924;4.396;2022-09-30T02:47:25;8.50;99.90
19829;DHT22;10075;50.924;4.396;2022-09-30T02:50:01;8.60;99.90
19829;DHT22;10075;50.924;4.396;2022-09-30T02:52:43;8.60;99.90
19829;DHT22;10075;50.924;4.396;2022-09-30T02:55:17;8.60;99.90
19829;DHT22;10075;50.924;4.396;2022-09-30T02:57:54;8.60;99.90
19829;DHT22;10075;50.924;4.396;2022-09-30T03:00:22;8.60;99.90
19829;DHT22;10075;50.924;4.396;2022-09-30T03:02:53;8.60;99.90
19829;DHT22;10075;50.924;4.396;2022-09-30T03:05:23;8.70;99.90
19829;DHT22;10075;50.924;4.396;2022-09-30T03:07:50;8.70;99.90
19829;DHT22;10075;50.924;4.396;2022-09-30T03:10:17;8.70;99.90
19829;DHT22;10075;50.924;4.396;2022-09-30T03:12:58;8.60;99.90
19829;DHT22;10075;50.924;4.396;2022-09-30T03:15:41;8.60;99.90
19829;DHT22;10075;50.924;4.396;2022-09-30T03:18:21;8.60;99.90
19829;DHT22;10075;50.924;4.396;2022-09-30T03:21:02;8.50;99.90
19829;DHT22;10075;50.924;4.396;2022-09-30T03:24:08;8.50;99.90
19829;DHT22;10075;50.924;4.396;2022-09-30T03:26:44;8.60;99.90
19829;DHT22;10075;50.924;4.396;2022-09-30T03:29:18;8.50;99.90
19829;DHT22;10075;50.924;4.396;2022-09-30T03:31:57;8.50;99.90
19829;DHT22;10075;50.924;4.396;2022-09-30T03:34:32;8.50;99.90
19829;DHT22;10075;50.924;4.396;2022-09-30T03:37:11;8.50;99.90
19829;DHT22;10075;50.924;4.396;2022-09-30T03:39:52;8.50;99.90
19829;DHT22;10075;50.924;4.396;2022-09-30T03:42:24;8.50;99.90
19829;DHT22;10075;50.924;4.396;2022-09-30T03:44:59;8.50;99.90
19829;DHT22;10075;50.924;4.396;2022-09-30T03:47:30;8.50;99.90
19829;DHT22;10075;50.924;4.396;2022-09-30T03:50:00;8.50;99.90
19829;DHT22;10075;50.924;4.396;2022-09-30T03:52:31;8.50;99.90
19829;DHT22;10075;50.924;4.396;2022-09-30T03:55:02;8.50;99.90
19829;DHT22;10075;50.924;4.396;2022-09-30T03:57:30;8.50;99.90
19829;DHT22;10075;50.924;4.396;2022-09-30T03:59:57;8.50;99.90
19829;DHT22;10075;50.924;4.396;2022-09-30T04:02:25;8.50;99.90
19829;DHT22;10075;50.924;4.396;2022-09-30T04:04:52;8.50;99.90
19829;DHT22;10075;50.924;4.396;2022-09-30T04:07:19;8.50;99.90
19829;DHT22;10075;50.924;4.396;2022-09-30T04:09:48;8.50;99.90
19829;DHT22;10075;50.924;4.396;2022-09-30T04:12:15;8.60;99.90
19829;DHT22;10075;50.924;4.396;2022-09-30T04:14:42;8.50;99.90
19829;DHT22;10075;50.924;4.396;2022-09-30T04:17:09;8.50;99.90
19829;DHT22;10075;50.924;4.396;2022-09-30T04:19:36;8.60;99.90
19829;DHT22;10075;50.924;4.396;2022-09-30T04:22:05;8.60;99.90
19829;DHT22;10075;50.924;4.396;2022-09-30T04:24:32;8.60;99.90
19829;DHT22;10075;50.924;4.396;2022-09-30T04:27:01;8.60;99.90
19829;DHT22;10075;50.924;4.396;2022-09-30T04:29:28;8.60;99.90
19829;DHT22;10075;50.924;4.396;2022-09-30T04:31:54;8.60;99.90
19829;DHT22;10075;50.924;4.396;2022-09-30T04:34:22;8.60;99.90
19829;DHT22;10075;50.924;4.396;2022-09-30T04:36:49;8.60;99.90
19829;DHT22;10075;50.924;4.396;2022-09-30T04:39:15;8.60;99.90
19829;DHT22;10075;50.924;4.396;2022-09-30T04:41:42;8.60;99.90
19829;DHT22;10075;50.924;4.396;2022-09-30T04:44:11;8.70;99.90
19829;DHT22;10075;50.924;4.396;2022-09-30T04:46:38;8.70;99.90
19829;DHT22;10075;50.924;4.396;2022-09-30T04:49:05;8.70;99.90
19829;DHT22;10075;50.924;4.396;2022-09-30T04:51:33;8.70;99.90
19829;DHT22;10075;50.924;4.396;2022-09-30T04:54:00;8.70;99.90
19829;DHT22;10075;50.924;4.396;2022-09-30T04:56:27;8.60;99.90
19829;DHT22;10075;50.924;4.396;2022-09-30T04:58:57;8.60;99.90
19829;DHT22;10075;50.924;4.396;2022-09-30T05:01:26;8.60;99.90
19829;DHT22;10075;50.924;4.396;2022-09-30T05:03:53;8.60;99.90
19829;DHT22;10075;50.924;4.396;2022-09-30T05:06:20;8.50;99.90
19829;DHT22;10075;50.924;4.396;2022-09-30T05:08:47;8.60;99.90
19829;DHT22;10075;50.924;4.396;2022-09-30T05:11:16;8.50;99.90
19829;DHT22;10075;50.924;4.396;2022-09-30T05:13:43;8.50;99.90
19829;DHT22;10075;50.924;4.396;2022-09-30T05:16:11;8.50;99.90
19829;DHT22;10075;50.924;4.396;2022-09-30T05:18:40;8.50;99.90
19829;DHT22;10075;50.924;4.396;2022-09-30T05:21:11;8.50;99.90
19829;DHT22;10075;50.924;4.396;2022-09-30T05:23:38;8.60;99.90
19829;DHT22;10075;50.924;4.396;2022-09-30T05:26:05;8.70;99.90
19829;DHT22;10075;50.924;4.396;2022-09-30T05:28:32;8.70;99.90
19829;DHT22;10075;50.924;4.396;2022-09-30T05:31:00;8.70;99.90
19829;DHT22;10075;50.924;4.396;2022-09-30T05:33:28;8.70;99.90
19829;DHT22;10075;50.924;4.396;2022-09-30T05:35:59;8.70;99.90
19829;DHT22;10075;50.924;4.396;2022-09-30T05:38:27;8.70;99.90
19829;DHT22;10075;50.924;4.396;2022-09-30T05:40:54;8.60;99.90
19829;DHT22;10075;50.924;4.396;2022-09-30T05:43:21;8.70;99.90
19829;DHT22;10075;50.924;4.396;2022-09-30T05:45:52;8.70;99.90
19829;DHT22;10075;50.924;4.396;2022-09-30T05:48:19;8.70;99.90
19829;DHT22;10075;50.924;4.396;2022-09-30T05:50:46;8.70;99.90
19829;DHT22;10075;50.924;4.396;2022-09-30T05:53:24;8.70;99.90
19829;DHT22;10075;50.924;4.396;2022-09-30T05:55:51;8.70;99.90
19829;DHT22;10075;50.924;4.396;2022-09-30T05:58:19;8.70;99.90
19829;DHT22;10075;50.924;4.396;2022-09-30T06:00:49;8.70;99.90
19829;DHT22;10075;50.924;4.396;2022-09-30T06:03:17;8.70;99.90
19829;DHT22;10075;50.924;4.396;2022-09-30T06:05:44;8.80;99.90
19829;DHT22;10075;50.924;4.396;2022-09-30T06:08:12;8.80;99.90
19829;DHT22;10075;50.924;4.396;2022-09-30T06:10:41;8.80;99.90
19829;DHT22;10075;50.924;4.396;2022-09-30T06:13:09;8.80;99.90
19829;DHT22;10075;50.924;4.396;2022-09-30T06:15:36;8.80;99.90
19829;DHT22;10075;50.924;4.396;2022-09-30T06:18:06;8.80;99.90
19829;DHT22;10075;50.924;4.396;2022-09-30T06:20:34;8.80;99.90
19829;DHT22;10075;50.924;4.396;2022-09-30T06:23:02;8.80;99.90
19829;DHT22;10075;50.924;4.396;2022-09-30T06:25:29;8.90;99.90
19829;DHT22;10075;50.924;4.396;2022-09-30T06:27:58;8.90;99.90
19829;DHT22;10075;50.924;4.396;2022-09-30T06:30:25;9.00;99.90
19829;DHT22;10075;50.924;4.396;2022-09-30T06:32:55;9.00;99.90
19829;DHT22;10075;50.924;4.396;2022-09-30T06:35:22;9.00;99.90
19829;DHT22;10075;50.924;4.396;2022-09-30T06:37:51;9.10;99.90
19829;DHT22;10075;50.924;4.396;2022-09-30T06:40:18;9.10;99.90
19829;DHT22;10075;50.924;4.396;2022-09-30T06:42:45;9.10;99.90
19829;DHT22;10075;50.924;4.396;2022-09-30T06:45:14;9.10;99.90
19829;DHT22;10075;50.924;4.396;2022-09-30T06:47:44;9.20;99.90
19829;DHT22;10075;50.924;4.396;2022-09-30T06:50:12;9.20;99.90
19829;DHT22;10075;50.924;4.396;2022-09-30T06:52:39;9.20;99.90
19829;DHT22;10075;50.924;4.396;2022-09-30T06:55:07;9.20;99.90
19829;DHT22;10075;50.924;4.396;2022-09-30T06:57:33;9.30;99.90
19829;DHT22;10075;50.924;4.396;2022-09-30T07:00:01;9.40;99.90
19829;DHT22;10075;50.924;4.396;2022-09-30T07:02:30;9.40;99.90
19829;DHT22;10075;50.924;4.396;2022-09-30T07:04:59;9.50;99.90
19829;DHT22;10075;50.924;4.396;2022-09-30T07:07:28;9.60;99.90
19829;DHT22;10075;50.924;4.396;2022-09-30T07:09:58;9.60;99.90
19829;DHT22;10075;50.924;4.396;2022-09-30T07:12:25;9.60;99.90
19829;DHT22;10075;50.924;4.396;2022-09-30T07:14:52;9.70;99.90
19829;DHT22;10075;50.924;4.396;2022-09-30T07:17:19;9.80;99.90
19829;DHT22;10075;50.924;4.396;2022-09-30T07:19:47;9.90;99.90
19829;DHT22;10075;50.924;4.396;2022-09-30T07:22:16;10.00;99.90
19829;DHT22;10075;50.924;4.396;2022-09-30T07:24:58;10.10;99.90
19829;DHT22;10075;50.924;4.396;2022-09-30T07:27:26;10.10;99.90
19829;DHT22;10075;50.924;4.396;2022-09-30T07:29:53;10.20;99.90
19829;DHT22;10075;50.924;4.396;2022-09-30T07:32:20;10.20;99.90
19829;DHT22;10075;50.924;4.396;2022-09-30T07:34:49;10.20;99.90
19829;DHT22;10075;50.924;4.396;2022-09-30T07:37:17;10.20;99.90
19829;DHT22;10075;50.924;4.396;2022-09-30T07:39:46;10.30;99.90
19829;DHT22;10075;50.924;4.396;2022-09-30T07:42:15;10.30;99.90
19829;DHT22;10075;50.924;4.396;2022-09-30T07:44:46;10.40;99.90
19829;DHT22;10075;50.924;4.396;2022-09-30T07:47:14;10.50;99.90
19829;DHT22;10075;50.924;4.396;2022-09-30T07:49:42;10.50;99.90
19829;DHT22;10075;50.924;4.396;2022-09-30T07:52:11;10.60;99.90
19829;DHT22;10075;50.924;4.396;2022-09-30T07:54:39;10.70;99.90
19829;DHT22;10075;50.924;4.396;2022-09-30T07:57:07;10.80;99.90
19829;DHT22;10075;50.924;4.396;2022-09-30T07:59:36;10.90;99.90
19829;DHT22;10075;50.924;4.396;2022-09-30T08:02:06;10.90;99.90
19829;DHT22;10075;50.924;4.396;2022-09-30T08:04:33;10.90;99.90
19829;DHT22;10075;50.924;4.396;2022-09-30T08:07:01;11.00;99.90
19829;DHT22;10075;50.924;4.396;2022-09-30T08:09:30;11.10;99.90
19829;DHT22;10075;50.924;4.396;2022-09-30T08:11:58;11.20;99.90
19829;DHT22;10075;50.924;4.396;2022-09-30T08:14:26;11.20;99.90
19829;DHT22;10075;50.924;4.396;2022-09-30T08:16:53;11.20;99.90
19829;DHT22;10075;50.924;4.396;2022-09-30T08:19:24;11.30;99.90
19829;DHT22;10075;50.924;4.396;2022-09-30T08:21:51;11.30;99.90
19829;DHT22;10075;50.924;4.396;2022-09-30T08:24:19;11.40;99.90
19829;DHT22;10075;50.924;4.396;2022-09-30T08:26:48;11.60;99.90
19829;DHT22;10075;50.924;4.396;2022-09-30T08:29:14;11.60;99.90
19829;DHT22;10075;50.924;4.396;2022-09-30T08:31:41;11.70;99.90
19829;DHT22;10075;50.924;4.396;2022-09-30T08:34:09;11.60;99.90
19829;DHT22;10075;50.924;4.396;2022-09-30T08:36:36;11.70;99.90
19829;DHT22;10075;50.924;4.396;2022-09-30T08:39:03;11.90;99.90
19829;DHT22;10075;50.924;4.396;2022-09-30T08:44:34;12.20;99.90
19829;DHT22;10075;50.924;4.396;2022-09-30T08:47:15;12.20;99.90
19829;DHT22;10075;50.924;4.396;2022-09-30T08:49:51;12.30;99.90
19829;DHT22;10075;50.924;4.396;2022-09-30T08:52:21;12.30;99.90
19829;DHT22;10075;50.924;4.396;2022-09-30T08:54:52;12.30;99.90
19829;DHT22;10075;50.924;4.396;2022-09-30T08:57:20;12.40;99.90
19829;DHT22;10075;50.924;4.396;2022-09-30T08:59:51;12.50;99.90
19829;DHT22;10075;50.924;4.396;2022-09-30T09:02:22;12.70;99.90
19829;DHT22;10075;50.924;4.396;2022-09-30T09:04:52;12.70;99.90
19829;DHT22;10075;50.924;4.396;2022-09-30T09:07:32;12.70;99.90
19829;DHT22;10075;50.924;4.396;2022-09-30T09:10:10;12.80;99.90
19829;DHT22;10075;50.924;4.396;2022-09-30T09:12:45;12.90;99.90
19829;DHT22;10075;50.924;4.396;2022-09-30T09:15:25;13.10;99.90
19829;DHT22;10075;50.924;4.396;2022-09-30T09:18:09;13.10;99.90
19829;DHT22;10075;50.924;4.396;2022-09-30T09:20:44;13.30;99.90
19829;DHT22;10075;50.924;4.396;2022-09-30T09:23:13;13.50;99.90
19829;DHT22;10075;50.924;4.396;2022-09-30T09:25:40;13.70;99.90
19829;DHT22;10075;50.924;4.396;2022-09-30T09:28:21;13.70;99.90
19829;DHT22;10075;50.924;4.396;2022-09-30T09:30:53;13.70;99.90
19829;DHT22;10075;50.924;4.396;2022-09-30T09:33:29;13.70;99.90
19829;DHT22;10075;50.924;4.396;2022-09-30T09:36:05;13.80;99.90
19829;DHT22;10075;50.924;4.396;2022-09-30T09:38:44;14.00;99.90
19829;DHT22;10075;50.924;4.396;2022-09-30T09:41:22;14.00;99.90
19829;DHT22;10075;50.924;4.396;2022-09-30T09:43:57;13.90;99.90
19829;DHT22;10075;50.924;4.396;2022-09-30T09:46:31;14.00;99.90
19829;DHT22;10075;50.924;4.396;2022-09-30T09:49:28;14.20;99.90
19829;DHT22;10075;50.924;4.396;2022-09-30T09:55:01;14.50;99.90
19829;DHT22;10075;50.924;4.396;2022-09-30T09:57:28;14.40;99.90
19829;DHT22;10075;50.924;4.396;2022-09-30T09:59:59;14.50;99.90
19829;DHT22;10075;50.924;4.396;2022-09-30T10:02:59;14.70;99.90
19829;DHT22;10075;50.924;4.396;2022-09-30T10:05:27;14.90;99.90
19829;DHT22;10075;50.924;4.396;2022-09-30T10:08:09;15.00;99.90
19829;DHT22;10075;50.924;4.396;2022-09-30T10:10:47;15.10;99.90
19829;DHT22;10075;50.924;4.396;2022-09-30T10:13:17;15.00;99.90
19829;DHT22;10075;50.924;4.396;2022-09-30T10:15:44;15.10;99.90
19829;DHT22;10075;50.924;4.396;2022-09-30T10:18:19;15.10;99.90
19829;DHT22;10075;50.924;4.396;2022-09-30T10:20:52;15.20;99.90
19829;DHT22;10075;50.924;4.396;2022-09-30T10:23:24;15.00;99.90
19829;DHT22;10075;50.924;4.396;2022-09-30T10:26:15;15.10;99.90
19829;DHT22;10075;50.924;4.396;2022-09-30T10:28:45;15.30;99.90
19829;DHT22;10075;50.924;4.396;2022-09-30T10:31:23;15.30;99.90
19829;DHT22;10075;50.924;4.396;2022-09-30T10:33:58;15.30;99.90
19829;DHT22;10075;50.924;4.396;2022-09-30T10:36:30;15.50;99.90
19829;DHT22;10075;50.924;4.396;2022-09-30T10:39:00;15.80;99.90
19829;DHT22;10075;50.924;4.396;2022-09-30T10:41:30;15.70;99.90
19829;DHT22;10075;50.924;4.396;2022-09-30T10:43:59;15.60;99.90
19829;DHT22;10075;50.924;4.396;2022-09-30T10:46:29;15.50;99.90
19829;DHT22;10075;50.924;4.396;2022-09-30T10:48:59;15.50;99.90
19829;DHT22;10075;50.924;4.396;2022-09-30T10:51:34;15.70;99.90
19829;DHT22;10075;50.924;4.396;2022-09-30T10:54:03;15.90;99.90
19829;DHT22;10075;50.924;4.396;2022-09-30T10:56:39;15.80;99.90
19829;DHT22;10075;50.924;4.396;2022-09-30T10:59:15;15.80;99.90
19829;DHT22;10075;50.924;4.396;2022-09-30T11:01:47;16.00;99.90
19829;DHT22;10075;50.924;4.396;2022-09-30T11:04:23;16.10;99.90
19829;DHT22;10075;50.924;4.396;2022-09-30T11:06:58;16.10;99.90
19829;DHT22;10075;50.924;4.396;2022-09-30T11:09:33;16.30;99.90
19829;DHT22;10075;50.924;4.396;2022-09-30T11:12:04;16.40;99.90
19829;DHT22;10075;50.924;4.396;2022-09-30T11:14:40;16.60;99.90
19829;DHT22;10075;50.924;4.396;2022-09-30T11:17:17;16.80;99.90
19829;DHT22;10075;50.924;4.396;2022-09-30T11:19:55;16.90;99.90
19829;DHT22;10075;50.924;4.396;2022-09-30T11:22:35;16.90;99.90
19829;DHT22;10075;50.924;4.396;2022-09-30T11:25:03;17.00;99.90
19829;DHT22;10075;50.924;4.396;2022-09-30T11:27:42;16.80;99.90
19829;DHT22;10075;50.924;4.396;2022-09-30T11:30:17;16.70;99.90
19829;DHT22;10075;50.924;4.396;2022-09-30T11:32:56;16.60;99.90
19829;DHT22;10075;50.924;4.396;2022-09-30T11:35:40;16.60;99.90
19829;DHT22;10075;50.924;4.396;2022-09-30T11:38:19;16.60;99.90
19829;DHT22;10075;50.924;4.396;2022-09-30T11:40:55;17.10;99.90
19829;DHT22;10075;50.924;4.396;2022-09-30T11:43:36;17.00;99.90
19829;DHT22;10075;50.924;4.396;2022-09-30T11:46:21;17.00;99.90
19829;DHT22;10075;50.924;4.396;2022-09-30T11:48:59;17.20;99.90
19829;DHT22;10075;50.924;4.396;2022-09-30T11:51:36;17.50;99.90
19829;DHT22;10075;50.924;4.396;2022-09-30T11:54:16;17.60;99.90
19829;DHT22;10075;50.924;4.396;2022-09-30T11:56:51;17.80;99.90
19829;DHT22;10075;50.924;4.396;2022-09-30T11:59:24;17.80;99.90
19829;DHT22;10075;50.924;4.396;2022-09-30T12:01:53;17.60;99.90
19829;DHT22;10075;50.924;4.396;2022-09-30T12:04:25;17.40;99.90
19829;DHT22;10075;50.924;4.396;2022-09-30T12:06:59;17.30;99.90
19829;DHT22;10075;50.924;4.396;2022-09-30T12:09:31;17.50;99.90
19829;DHT22;10075;50.924;4.396;2022-09-30T12:12:05;17.90;99.90
19829;DHT22;10075;50.924;4.396;2022-09-30T12:14:38;18.10;99.90
19829;DHT22;10075;50.924;4.396;2022-09-30T12:17:13;18.40;99.90
19829;DHT22;10075;50.924;4.396;2022-09-30T12:19:45;18.70;99.90
19829;DHT22;10075;50.924;4.396;2022-09-30T12:22:19;18.80;99.90
19829;DHT22;10075;50.924;4.396;2022-09-30T12:24:47;18.80;99.90
19829;DHT22;10075;50.924;4.396;2022-09-30T12:27:17;18.60;99.90
19829;DHT22;10075;50.924;4.396;2022-09-30T12:29:53;18.60;99.90
19829;DHT22;10075;50.924;4.396;2022-09-30T12:36:22;18.90;99.90
19829;DHT22;10075;50.924;4.396;2022-09-30T12:39:16;19.10;99.90
19829;DHT22;10075;50.924;4.396;2022-09-30T12:42:04;19.50;99.90
19829;DHT22;10075;50.924;4.396;2022-09-30T12:45:02;19.70;99.90
19829;DHT22;10075;50.924;4.396;2022-09-30T12:47:37;20.00;99.90
19829;DHT22;10075;50.924;4.396;2022-09-30T12:50:12;20.00;99.90
19829;DHT22;10075;50.924;4.396;2022-09-30T12:52:40;20.10;99.90
19829;DHT22;10075;50.924;4.396;2022-09-30T12:55:19;20.20;99.90
19829;DHT22;10075;50.924;4.396;2022-09-30T12:57:48;20.20;99.90
19829;DHT22;10075;50.924;4.396;2022-09-30T13:00:17;20.00;99.90
19829;DHT22;10075;50.924;4.396;2022-09-30T13:02:46;19.90;99.90
19829;DHT22;10075;50.924;4.396;2022-09-30T13:05:46;20.10;99.90
19829;DHT22;10075;50.924;4.396;2022-09-30T13:09:15;20.10;99.90
19829;DHT22;10075;50.924;4.396;2022-09-30T13:11:45;19.90;99.90
19829;DHT22;10075;50.924;4.396;2022-09-30T13:17:24;19.90;99.90
19829;DHT22;10075;50.924;4.396;2022-09-30T13:19:53;19.90;99.90
19829;DHT22;10075;50.924;4.396;2022-09-30T13:25:13;19.90;99.90
19829;DHT22;10075;50.924;4.396;2022-09-30T13:27:44;19.90;99.90
19829;DHT22;10075;50.924;4.396;2022-09-30T13:30:39;19.80;99.90
19829;DHT22;10075;50.924;4.396;2022-09-30T13:36:25;19.50;99.90
19829;DHT22;10075;50.924;4.396;2022-09-30T13:39:19;19.30;99.90
19829;DHT22;10075;50.924;4.396;2022-09-30T13:41:57;19.40;99.90
19829;DHT22;10075;50.924;4.396;2022-09-30T13:44:33;19.60;99.90
19829;DHT22;10075;50.924;4.396;2022-09-30T13:47:12;19.90;99.90
19829;DHT22;10075;50.924;4.396;2022-09-30T13:49:46;19.90;99.90
19829;DHT22;10075;50.924;4.396;2022-09-30T13:52:20;20.10;99.90
19829;DHT22;10075;50.924;4.396;2022-09-30T13:54:49;19.90;99.90
19829;DHT22;10075;50.924;4.396;2022-09-30T13:57:24;19.70;99.90
19829;DHT22;10075;50.924;4.396;2022-09-30T14:00:02;19.90;99.90
19829;DHT22;10075;50.924;4.396;2022-09-30T14:02:54;20.00;99.90
19829;DHT22;10075;50.924;4.396;2022-09-30T14:05:47;19.90;99.90
19829;DHT22;10075;50.924;4.396;2022-09-30T14:08:48;19.70;99.90
19829;DHT22;10075;50.924;4.396;2022-09-30T14:14:27;20.20;99.90
19829;DHT22;10075;50.924;4.396;2022-09-30T14:17:19;20.20;99.90
19829;DHT22;10075;50.924;4.396;2022-09-30T14:22:55;20.10;99.90
19829;DHT22;10075;50.924;4.396;2022-09-30T14:25:22;20.00;99.90
19829;DHT22;10075;50.924;4.396;2022-09-30T14:28:02;19.90;99.90
19829;DHT22;10075;50.924;4.396;2022-09-30T14:30:33;20.00;99.90
19829;DHT22;10075;50.924;4.396;2022-09-30T14:33:09;20.10;99.90
19829;DHT22;10075;50.924;4.396;2022-09-30T14:35:37;20.30;99.90
19829;DHT22;10075;50.924;4.396;2022-09-30T14:38:08;20.10;99.90
19829;DHT22;10075;50.924;4.396;2022-09-30T14:40:47;20.10;99.90
19829;DHT22;10075;50.924;4.396;2022-09-30T14:43:18;19.90;99.90
19829;DHT22;10075;50.924;4.396;2022-09-30T14:45:50;19.90;99.90
19829;DHT22;10075;50.924;4.396;2022-09-30T14:48:23;20.00;99.90
19829;DHT22;10075;50.924;4.396;2022-09-30T14:50:56;20.10;99.90
19829;DHT22;10075;50.924;4.396;2022-09-30T14:53:26;20.40;99.90
19829;DHT22;10075;50.924;4.396;2022-09-30T14:55:53;20.90;99.80
19829;DHT22;10075;50.924;4.396;2022-09-30T14:58:23;21.80;99.20
19829;DHT22;10075;50.924;4.396;2022-09-30T15:01:02;22.40;97.70
19829;DHT22;10075;50.924;4.396;2022-09-30T15:03:34;22.80;97.30
19829;DHT22;10075;50.924;4.396;2022-09-30T15:06:03;23.10;95.80
19829;DHT22;10075;50.924;4.396;2022-09-30T15:08:31;23.70;95.20
19829;DHT22;10075;50.924;4.396;2022-09-30T15:10:58;24.40;93.20
19829;DHT22;10075;50.924;4.396;2022-09-30T15:13:27;24.70;92.50
19829;DHT22;10075;50.924;4.396;2022-09-30T15:15:55;25.00;91.60
19829;DHT22;10075;50.924;4.396;2022-09-30T15:18:40;24.40;91.50
19829;DHT22;10075;50.924;4.396;2022-09-30T15:21:10;23.90;92.00
19829;DHT22;10075;50.924;4.396;2022-09-30T15:23:40;23.80;92.40
19829;DHT22;10075;50.924;4.396;2022-09-30T15:26:10;23.90;92.10
19829;DHT22;10075;50.924;4.396;2022-09-30T15:28:37;24.30;91.90
19829;DHT22;10075;50.924;4.396;2022-09-30T15:31:05;24.20;91.80
19829;DHT22;10075;50.924;4.396;2022-09-30T15:33:34;23.50;92.60
19829;DHT22;10075;50.924;4.396;2022-09-30T15:36:06;23.00;93.40
19829;DHT22;10075;50.924;4.396;2022-09-30T15:38:35;23.00;92.40
19829;DHT22;10075;50.924;4.396;2022-09-30T15:41:05;22.70;92.60
19829;DHT22;10075;50.924;4.396;2022-09-30T15:43:35;22.50;93.00
19829;DHT22;10075;50.924;4.396;2022-09-30T15:46:25;22.40;93.30
19829;DHT22;10075;50.924;4.396;2022-09-30T15:48:56;22.00;93.70
19829;DHT22;10075;50.924;4.396;2022-09-30T15:51:29;21.70;94.10
19829;DHT22;10075;50.924;4.396;2022-09-30T15:53:56;21.60;94.40
19829;DHT22;10075;50.924;4.396;2022-09-30T15:56:30;21.50;94.80
19829;DHT22;10075;50.924;4.396;2022-09-30T15:59:01;21.30;94.70
19829;DHT22;10075;50.924;4.396;2022-09-30T16:01:33;20.90;95.20
19829;DHT22;10075;50.924;4.396;2022-09-30T16:04:06;20.80;95.40
19829;DHT22;10075;50.924;4.396;2022-09-30T16:06:42;20.60;95.80
19829;DHT22;10075;50.924;4.396;2022-09-30T16:09:22;20.40;96.10
19829;DHT22;10075;50.924;4.396;2022-09-30T16:12:00;20.30;96.80
19829;DHT22;10075;50.924;4.396;2022-09-30T16:14:32;20.10;96.70
19829;DHT22;10075;50.924;4.396;2022-09-30T16:17:04;19.90;97.00
19829;DHT22;10075;50.924;4.396;2022-09-30T16:19:33;19.70;97.50
19829;DHT22;10075;50.924;4.396;2022-09-30T16:22:00;19.50;97.60
19829;DHT22;10075;50.924;4.396;2022-09-30T16:24:44;19.10;98.10
19829;DHT22;10075;50.924;4.396;2022-09-30T16:27:24;18.80;98.40
19829;DHT22;10075;50.924;4.396;2022-09-30T16:29:54;18.60;99.40
19829;DHT22;10075;50.924;4.396;2022-09-30T16:32:23;18.50;99.30
19829;DHT22;10075;50.924;4.396;2022-09-30T16:34:51;18.30;99.60
19829;DHT22;10075;50.924;4.396;2022-09-30T16:37:19;18.30;99.90